createdAt,value
2022-10-16T00:01:14.849Z,101170.88
2022-10-16T00:03:45.811Z,101176.53
2022-10-16T00:06:14.686Z,101177.94
2022-10-16T00:08:43.146Z,101172.56
2022-10-16T00:11:13.775Z,101176.91
2022-10-16T00:13:43.810Z,101179.88
2022-10-16T00:16:13.270Z,101180.75
2022-10-16T00:18:41.585Z,101183.00
2022-10-16T00:21:13.465Z,101184.66
2022-10-16T00:23:42.019Z,101184.16
2022-10-16T00:26:12.249Z,101183.13
2022-10-16T00:28:40.997Z,101185.03
2022-10-16T00:31:10.775Z,101180.03
2022-10-16T00:33:40.790Z,101183.78
2022-10-16T00:36:13.512Z,101180.28
2022-10-16T00:38:41.850Z,101181.59
2022-10-16T00:41:13.862Z,101171.63
2022-10-16T00:43:44.882Z,101175.72
2022-10-16T00:46:18.301Z,101171.41
2022-10-16T00:48:51.587Z,101174.91
2022-10-16T00:51:25.736Z,101169.28
2022-10-16T00:53:54.615Z,101168.03
2022-10-16T00:56:22.977Z,101171.44
2022-10-16T00:58:51.587Z,101170.13
2022-10-16T01:01:19.766Z,101169.84
2022-10-16T01:03:48.166Z,101166.66
2022-10-16T01:06:27.351Z,101173.19
2022-10-16T01:09:04.543Z,101171.53
2022-10-16T01:11:38.169Z,101186.78
2022-10-16T01:14:17.346Z,101172.09
2022-10-16T01:16:51.714Z,101181.56
2022-10-16T01:19:28.946Z,101189.34
2022-10-16T01:22:00.694Z,101187.72
2022-10-16T01:24:34.886Z,101190.91
2022-10-16T01:27:11.958Z,101190.44
2022-10-16T01:29:44.656Z,101184.53
2022-10-16T01:32:19.155Z,101189.91
2022-10-16T01:34:53.186Z,101203.56
2022-10-16T01:37:29.566Z,101197.97
2022-10-16T01:40:02.686Z,101193.66
2022-10-16T01:42:37.433Z,101199.31
2022-10-16T01:45:08.974Z,101200.72
2022-10-16T01:47:38.778Z,101201.31
2022-10-16T01:50:09.049Z,101196.81
2022-10-16T01:52:41.713Z,101204.56
2022-10-16T01:55:12.905Z,101206.84
2022-10-16T01:57:47.071Z,101204.22
2022-10-16T02:00:19.081Z,101203.41
2022-10-16T02:02:51.407Z,101213.81
2022-10-16T02:05:26.029Z,101213.56
2022-10-16T02:07:54.390Z,101207.19
2022-10-16T02:10:23.144Z,101210.66
2022-10-16T02:13:00.325Z,101219.72
2022-10-16T02:15:28.477Z,101214.97
2022-10-16T02:17:56.564Z,101205.47
2022-10-16T02:20:29.502Z,101215.91
2022-10-16T02:22:59.011Z,101218.34
2022-10-16T02:25:31.978Z,101214.59
2022-10-16T02:28:05.700Z,101232.28
2022-10-16T02:30:38.850Z,101238.50
2022-10-16T02:33:10.457Z,101225.66
2022-10-16T02:35:40.287Z,101227.56
2022-10-16T02:40:39.925Z,101240.47
2022-10-16T02:43:10.163Z,101227.00
2022-10-16T02:45:38.545Z,101216.56
2022-10-16T02:48:07.338Z,101235.31
2022-10-16T02:50:35.446Z,101246.84
2022-10-16T02:53:03.874Z,101233.53
2022-10-16T02:55:32.118Z,101236.25
2022-10-16T02:58:00.337Z,101237.94
2022-10-16T03:00:29.866Z,101239.19
2022-10-16T03:02:57.956Z,101241.81
2022-10-16T03:05:26.047Z,101241.91
2022-10-16T03:07:54.758Z,101244.84
2022-10-16T03:10:22.849Z,101240.56
2022-10-16T03:12:50.908Z,101241.91
2022-10-16T03:15:19.051Z,101250.69
2022-10-16T03:17:48.548Z,101256.34
2022-10-16T03:20:16.808Z,101257.94
2022-10-16T03:22:45.048Z,101262.72
2022-10-16T03:25:13.176Z,101254.38
2022-10-16T03:27:41.330Z,101253.53
2022-10-16T03:30:10.951Z,101246.78
2022-10-16T03:32:39.007Z,101242.28
2022-10-16T03:35:09.669Z,101248.78
2022-10-16T03:37:37.745Z,101243.44
2022-10-16T03:40:06.897Z,101249.28
2022-10-16T03:42:34.972Z,101246.06
2022-10-16T03:45:03.151Z,101260.09
2022-10-16T03:47:31.743Z,101249.94
2022-10-16T03:49:59.798Z,101252.69
2022-10-16T03:52:29.791Z,101249.75
2022-10-16T03:54:57.886Z,101255.38
2022-10-16T03:57:26.189Z,101251.94
2022-10-16T03:59:54.427Z,101249.22
2022-10-16T04:02:22.566Z,101249.75
2022-10-16T04:04:50.748Z,101252.19
2022-10-16T04:07:18.910Z,101242.03
2022-10-16T04:09:48.453Z,101243.31
2022-10-16T04:12:16.633Z,101253.94
2022-10-16T04:14:44.823Z,101254.19
2022-10-16T04:17:12.951Z,101257.91
2022-10-16T04:19:40.978Z,101267.06
2022-10-16T04:22:09.191Z,101257.78
2022-10-16T04:24:37.274Z,101262.06
2022-10-16T04:27:06.897Z,101261.06
2022-10-16T04:29:35.014Z,101266.94
2022-10-16T04:32:03.084Z,101270.94
2022-10-16T04:34:31.243Z,101265.06
2022-10-16T04:36:59.426Z,101271.22
2022-10-16T04:39:27.609Z,101276.03
2022-10-16T04:41:55.744Z,101281.09
2022-10-16T04:44:25.282Z,101281.09
2022-10-16T04:46:53.887Z,101282.97
2022-10-16T04:49:21.954Z,101285.06
2022-10-16T04:51:50.153Z,101282.06
2022-10-16T04:54:18.255Z,101286.31
2022-10-16T04:56:48.445Z,101294.56
2022-10-16T04:59:17.030Z,101286.56
2022-10-16T05:01:46.791Z,101289.50
2022-10-16T05:04:16.065Z,101292.94
2022-10-16T05:06:44.667Z,101291.50
2022-10-16T05:09:12.856Z,101300.53
2022-10-16T05:11:40.957Z,101305.84
2022-10-16T05:14:09.043Z,101296.72
2022-10-16T05:16:37.140Z,101306.78
2022-10-16T05:21:54.949Z,101322.41
2022-10-16T05:24:23.087Z,101327.41
2022-10-16T05:26:51.862Z,101335.72
2022-10-16T05:29:19.952Z,101327.00
2022-10-16T05:31:48.158Z,101329.09
2022-10-16T05:34:17.656Z,101328.03
2022-10-16T05:36:46.318Z,101329.88
2022-10-16T05:39:16.158Z,101323.94
2022-10-16T05:41:44.401Z,101331.75
2022-10-16T05:44:12.677Z,101327.13
2022-10-16T05:46:40.761Z,101346.44
2022-10-16T05:49:08.854Z,101345.28
2022-10-16T05:51:38.311Z,101350.84
2022-10-16T05:54:06.602Z,101350.06
2022-10-16T05:56:34.728Z,101358.78
2022-10-16T05:59:02.825Z,101356.94
2022-10-16T06:01:32.039Z,101364.72
2022-10-16T06:04:00.286Z,101375.81
2022-10-16T06:06:30.684Z,101366.47
2022-10-16T06:09:00.874Z,101362.69
2022-10-16T06:11:31.195Z,101368.31
2022-10-16T06:14:07.909Z,101372.22
2022-10-16T06:16:37.054Z,101371.56
2022-10-16T06:19:07.479Z,101372.97
2022-10-16T06:21:36.183Z,101377.34
2022-10-16T06:24:06.406Z,101382.63
2022-10-16T06:26:34.517Z,101390.41
2022-10-16T06:29:03.044Z,101378.06
2022-10-16T06:31:34.515Z,101383.06
2022-10-16T06:34:05.722Z,101378.91
2022-10-16T06:36:33.835Z,101398.69
2022-10-16T06:39:01.982Z,101396.94
2022-10-16T06:41:31.653Z,101408.72
2022-10-16T06:43:59.755Z,101386.63
2022-10-16T06:46:29.060Z,101399.59
2022-10-16T06:48:57.207Z,101408.59
2022-10-16T06:51:27.291Z,101413.38
2022-10-16T06:54:05.041Z,101414.41
2022-10-16T06:56:36.010Z,101415.00
2022-10-16T06:59:05.143Z,101425.78
2022-10-16T07:01:33.373Z,101420.81
2022-10-16T07:04:03.203Z,101422.63
2022-10-16T07:06:34.637Z,101425.84
2022-10-16T07:09:06.275Z,101424.53
2022-10-16T07:11:36.697Z,101428.75
2022-10-16T07:14:05.550Z,101432.22
2022-10-16T07:16:35.342Z,101422.63
2022-10-16T07:19:05.078Z,101436.91
2022-10-16T07:21:36.951Z,101442.03
2022-10-16T07:24:07.333Z,101446.81
2022-10-16T07:26:40.113Z,101448.13
2022-10-16T07:29:09.516Z,101445.13
2022-10-16T07:31:39.315Z,101436.66
2022-10-16T07:34:07.622Z,101445.41
2022-10-16T07:36:35.901Z,101450.75
2022-10-16T07:39:04.037Z,101448.22
2022-10-16T07:41:33.881Z,101449.53
2022-10-16T07:44:03.418Z,101453.19
2022-10-16T07:46:32.162Z,101442.69
2022-10-16T07:49:00.196Z,101455.44
2022-10-16T07:51:28.894Z,101455.31
2022-10-16T07:53:57.243Z,101463.47
2022-10-16T07:56:25.924Z,101463.16
2022-10-16T07:58:54.316Z,101446.16
2022-10-16T08:01:23.947Z,101459.84
2022-10-16T08:03:53.770Z,101451.03
2022-10-16T08:06:27.554Z,101444.53
2022-10-16T08:08:56.920Z,101472.28
2022-10-16T08:11:25.569Z,101455.38
2022-10-16T08:13:53.868Z,101460.44
2022-10-16T08:16:23.720Z,101462.00
2022-10-16T08:18:52.852Z,101448.75
2022-10-16T08:21:22.428Z,101459.03
2022-10-16T08:23:54.835Z,101459.88
2022-10-16T08:26:27.114Z,101463.28
2022-10-16T08:28:55.621Z,101452.59
2022-10-16T08:31:25.625Z,101467.25
2022-10-16T08:33:53.955Z,101465.13
2022-10-16T08:36:22.238Z,101458.81
2022-10-16T08:38:52.992Z,101466.44
2022-10-16T08:41:59.030Z,101469.03
2022-10-16T08:45:02.015Z,101471.91
2022-10-16T08:47:44.680Z,101464.19
2022-10-16T08:50:15.375Z,101471.56
2022-10-16T08:52:47.045Z,101473.63
2022-10-16T08:55:30.778Z,101472.25
2022-10-16T08:57:59.272Z,101477.66
2022-10-16T09:00:29.482Z,101483.44
2022-10-16T09:03:10.360Z,101482.06
2022-10-16T09:05:54.639Z,101480.75
2022-10-16T09:08:31.907Z,101481.00
2022-10-16T09:11:06.344Z,101496.59
2022-10-16T09:13:42.466Z,101482.16
2022-10-16T09:16:22.027Z,101491.25
2022-10-16T09:19:00.552Z,101479.91
2022-10-16T09:21:31.780Z,101478.25
2022-10-16T09:24:02.263Z,101485.50
2022-10-16T09:26:30.842Z,101478.63
2022-10-16T09:28:59.018Z,101477.31
2022-10-16T09:31:27.349Z,101474.34
2022-10-16T09:34:02.069Z,101478.53
2022-10-16T09:36:37.583Z,101477.78
2022-10-16T09:39:08.075Z,101480.28
2022-10-16T09:41:39.809Z,101474.34
2022-10-16T09:44:21.743Z,101475.38
2022-10-16T09:46:49.833Z,101469.97
2022-10-16T09:49:27.423Z,101475.78
2022-10-16T09:52:06.474Z,101488.88
2022-10-16T09:54:34.642Z,101477.28
2022-10-16T09:57:09.582Z,101462.66
2022-10-16T09:59:48.837Z,101461.88
2022-10-16T10:02:18.815Z,101467.59
2022-10-16T10:04:52.550Z,101463.78
2022-10-16T10:07:26.412Z,101457.25
2022-10-16T10:09:55.933Z,101470.63
2022-10-16T10:12:27.290Z,101478.69
2022-10-16T10:14:58.384Z,101452.63
2022-10-16T10:17:28.640Z,101473.81
2022-10-16T10:20:01.743Z,101465.53
2022-10-16T10:22:41.127Z,101469.03
2022-10-16T10:25:24.158Z,101452.84
2022-10-16T10:28:20.092Z,101463.84
2022-10-16T10:30:57.374Z,101459.06
2022-10-16T10:33:36.528Z,101457.91
2022-10-16T10:36:18.152Z,101460.63
2022-10-16T10:38:52.743Z,101455.38
2022-10-16T10:41:57.417Z,101478.31
2022-10-16T10:44:34.313Z,101463.53
2022-10-16T10:47:11.531Z,101467.97
2022-10-16T10:49:51.903Z,101464.00
2022-10-16T10:52:39.070Z,101461.00
2022-10-16T10:55:17.168Z,101467.66
2022-10-16T10:58:01.684Z,101453.94
2022-10-16T11:00:37.386Z,101447.72
2022-10-16T11:03:21.147Z,101450.44
2022-10-16T11:05:50.830Z,101442.28
2022-10-16T11:08:22.987Z,101432.59
2022-10-16T11:10:55.796Z,101429.44
2022-10-16T11:13:32.989Z,101427.59
2022-10-16T11:16:04.845Z,101436.78
2022-10-16T11:18:42.163Z,101442.66
2022-10-16T11:21:14.246Z,101439.78
2022-10-16T11:23:51.332Z,101451.09
2022-10-16T11:26:23.475Z,101446.66
2022-10-16T11:28:55.673Z,101447.28
2022-10-16T11:31:31.138Z,101444.13
2022-10-16T11:34:07.577Z,101451.09
2022-10-16T11:36:41.536Z,101456.50
2022-10-16T11:39:21.193Z,101445.53
2022-10-16T11:41:53.827Z,101461.56
2022-10-16T11:44:36.712Z,101458.06
2022-10-16T11:47:39.853Z,101459.38
2022-10-16T11:50:11.283Z,101465.75
2022-10-16T11:52:43.051Z,101450.75
2022-10-16T11:55:19.728Z,101455.25
2022-10-16T11:57:51.995Z,101444.09
2022-10-16T12:00:26.219Z,101449.84
2022-10-16T12:03:06.816Z,101442.84
2022-10-16T12:05:49.057Z,101460.34
2022-10-16T12:08:18.526Z,101448.03
2022-10-16T12:10:49.835Z,101443.41
2022-10-16T12:13:35.828Z,101450.09
2022-10-16T12:16:09.344Z,101465.25
2022-10-16T12:18:37.462Z,101456.78
2022-10-16T12:21:07.862Z,101449.81
2022-10-16T12:23:40.437Z,101447.13
2022-10-16T12:26:10.024Z,101466.06
2022-10-16T12:28:40.230Z,101467.34
2022-10-16T12:31:11.090Z,101461.69
2022-10-16T12:33:42.257Z,101465.34
2022-10-16T12:36:18.041Z,101465.84
2022-10-16T12:38:50.363Z,101465.06
2022-10-16T12:41:29.369Z,101471.25
2022-10-16T12:43:58.167Z,101477.47
2022-10-16T12:46:37.624Z,101497.97
2022-10-16T12:49:25.570Z,101476.16
2022-10-16T12:51:53.961Z,101486.69
2022-10-16T12:54:32.301Z,101482.22
2022-10-16T12:57:14.961Z,101491.59
2022-10-16T12:59:53.325Z,101482.81
2022-10-16T13:02:54.724Z,101485.88
2022-10-16T13:05:37.521Z,101489.03
2022-10-16T13:08:21.088Z,101477.91
2022-10-16T13:11:03.620Z,101485.97
2022-10-16T13:14:10.146Z,101483.44
2022-10-16T13:16:51.325Z,101474.88
2022-10-16T13:19:29.274Z,101486.13
2022-10-16T13:22:04.484Z,101493.59
2022-10-16T13:24:51.813Z,101499.94
2022-10-16T13:27:36.941Z,101485.00
2022-10-16T13:30:14.442Z,101493.16
2022-10-16T13:32:50.216Z,101497.25
2022-10-16T13:35:24.097Z,101482.28
2022-10-16T13:37:52.677Z,101486.41
2022-10-16T13:40:23.671Z,101488.31
2022-10-16T13:42:52.677Z,101495.81
2022-10-16T13:45:22.349Z,101498.81
2022-10-16T13:47:52.236Z,101502.66
2022-10-16T13:50:20.949Z,101515.50
2022-10-16T13:52:50.578Z,101500.38
2022-10-16T13:55:20.753Z,101519.91
2022-10-16T13:57:48.822Z,101526.41
2022-10-16T14:00:22.105Z,101516.91
2022-10-16T14:02:58.567Z,101519.81
2022-10-16T14:05:26.961Z,101504.06
2022-10-16T14:07:56.873Z,101514.97
2022-10-16T14:10:28.654Z,101510.25
2022-10-16T14:12:59.066Z,101506.22
2022-10-16T14:15:27.608Z,101511.56
2022-10-16T14:17:57.359Z,101503.16
2022-10-16T14:20:28.867Z,101514.75
2022-10-16T14:23:05.363Z,101513.72
2022-10-16T14:25:34.927Z,101523.81
2022-10-16T14:28:05.369Z,101521.44
2022-10-16T14:30:35.318Z,101524.25
2022-10-16T14:33:07.646Z,101532.84
2022-10-16T14:35:37.870Z,101529.66
2022-10-16T14:38:08.872Z,101523.09
2022-10-16T14:40:39.221Z,101529.28
2022-10-16T14:43:07.677Z,101529.13
2022-10-16T14:45:37.748Z,101520.38
2022-10-16T14:48:19.972Z,101521.56
2022-10-16T14:50:48.438Z,101530.47
2022-10-16T14:53:17.281Z,101527.59
2022-10-16T14:55:45.673Z,101528.63
2022-10-16T14:58:17.534Z,101534.91
2022-10-16T15:00:45.722Z,101536.44
2022-10-16T15:03:15.934Z,101540.69
2022-10-16T15:05:44.103Z,101536.94
2022-10-16T15:08:13.436Z,101530.94
2022-10-16T15:10:45.265Z,101538.03
2022-10-16T15:13:16.578Z,101536.59
2022-10-16T15:15:46.757Z,101548.88
2022-10-16T15:18:21.237Z,101545.56
2022-10-16T15:20:52.106Z,101549.13
2022-10-16T15:23:22.295Z,101548.94
2022-10-16T15:25:52.013Z,101549.00
2022-10-16T15:28:21.671Z,101562.47
2022-10-16T15:30:52.028Z,101561.25
2022-10-16T15:33:24.760Z,101572.41
2022-10-16T15:35:54.191Z,101570.59
2022-10-16T15:38:24.630Z,101572.56
2022-10-16T15:40:52.855Z,101574.97
2022-10-16T15:43:21.221Z,101582.50
2022-10-16T15:46:02.502Z,101587.84
2022-10-16T15:48:33.237Z,101593.31
2022-10-16T15:51:01.794Z,101598.44
2022-10-16T15:53:29.905Z,101596.34
2022-10-16T15:55:58.022Z,101612.06
2022-10-16T15:58:26.654Z,101612.34
2022-10-16T16:00:58.233Z,101617.91
2022-10-16T16:03:26.495Z,101608.84
2022-10-16T16:05:56.360Z,101621.63
2022-10-16T16:08:24.766Z,101611.88
2022-10-16T16:11:00.555Z,101613.13
2022-10-16T16:13:29.273Z,101626.94
2022-10-16T16:15:57.458Z,101620.59
2022-10-16T16:18:26.133Z,101631.47
2022-10-16T16:20:55.813Z,101635.00
2022-10-16T16:23:24.491Z,101636.38
2022-10-16T16:26:06.670Z,101637.97
2022-10-16T16:28:35.051Z,101643.34
2022-10-16T16:31:03.210Z,101656.94
2022-10-16T16:33:32.544Z,101659.44
2022-10-16T16:36:03.747Z,101663.56
2022-10-16T16:38:33.810Z,101675.88
2022-10-16T16:41:02.475Z,101663.06
2022-10-16T16:43:30.712Z,101669.19
2022-10-16T16:46:04.097Z,101673.03
2022-10-16T16:48:32.248Z,101677.22
2022-10-16T16:51:06.610Z,101673.97
2022-10-16T16:53:36.124Z,101677.34
2022-10-16T16:56:05.146Z,101677.28
2022-10-16T16:58:34.640Z,101684.56
2022-10-16T17:01:19.419Z,101686.00
2022-10-16T17:03:52.146Z,101686.78
2022-10-16T17:06:22.571Z,101681.66
2022-10-16T17:08:51.960Z,101694.00
2022-10-16T17:11:22.904Z,101696.25
2022-10-16T17:13:55.559Z,101698.94
2022-10-16T17:16:28.178Z,101701.94
2022-10-16T17:18:56.361Z,101697.91
2022-10-16T17:21:26.967Z,101692.03
2022-10-16T17:23:56.171Z,101705.25
2022-10-16T17:26:24.350Z,101706.88
2022-10-16T17:28:53.492Z,101686.78
2022-10-16T17:31:24.481Z,101699.66
2022-10-16T17:33:53.117Z,101695.59
2022-10-16T17:36:22.112Z,101695.38
2022-10-16T17:38:51.666Z,101696.97
2022-10-16T17:41:22.963Z,101690.56
2022-10-16T17:43:51.845Z,101694.06
2022-10-16T17:46:22.024Z,101696.19
2022-10-16T17:48:54.441Z,101704.53
2022-10-16T17:51:24.493Z,101698.66
2022-10-16T17:53:55.546Z,101702.94
2022-10-16T17:56:26.907Z,101699.47
2022-10-16T17:58:57.045Z,101695.41
2022-10-16T18:01:26.686Z,101698.38
2022-10-16T18:03:57.167Z,101701.59
2022-10-16T18:06:26.135Z,101703.75
2022-10-16T18:08:56.470Z,101699.72
2022-10-16T18:11:24.705Z,101700.50
2022-10-16T18:13:53.726Z,101705.09
2022-10-16T18:16:22.915Z,101704.56
2022-10-16T18:18:51.734Z,101707.25
2022-10-16T18:21:21.766Z,101706.97
2022-10-16T18:23:52.216Z,101699.72
2022-10-16T18:26:23.157Z,101702.09
2022-10-16T18:28:54.314Z,101708.06
2022-10-16T18:31:25.711Z,101712.91
2022-10-16T18:33:54.057Z,101711.00
2022-10-16T18:36:24.766Z,101720.16
2022-10-16T18:38:53.005Z,101712.06
2022-10-16T18:41:23.023Z,101718.00
2022-10-16T18:43:51.100Z,101716.66
2022-10-16T18:46:21.065Z,101728.47
2022-10-16T18:48:51.017Z,101729.50
2022-10-16T18:51:22.287Z,101730.88
2022-10-16T18:53:53.432Z,101727.69
2022-10-16T18:56:24.919Z,101734.94
2022-10-16T18:58:54.476Z,101742.41
2022-10-16T19:01:25.187Z,101747.75
2022-10-16T19:03:56.695Z,101742.94
2022-10-16T19:06:25.551Z,101747.00
2022-10-16T19:08:55.133Z,101748.31
2022-10-16T19:11:26.785Z,101745.91
2022-10-16T19:13:55.991Z,101749.41
2022-10-16T19:16:26.091Z,101753.13
2022-10-16T19:18:55.898Z,101757.44
2022-10-16T19:21:25.546Z,101767.34
2022-10-16T19:23:54.347Z,101758.78
2022-10-16T19:26:24.329Z,101767.63
2022-10-16T19:28:53.745Z,101771.91
2022-10-16T19:31:24.786Z,101773.53
2022-10-16T19:33:54.263Z,101771.13
2022-10-16T19:36:24.346Z,101777.00
2022-10-16T19:38:56.078Z,101779.66
2022-10-16T19:41:26.155Z,101775.66
2022-10-16T19:43:54.431Z,101775.38
2022-10-16T19:46:24.448Z,101777.53
2022-10-16T19:48:55.828Z,101783.72
2022-10-16T19:51:24.358Z,101780.22
2022-10-16T19:53:56.469Z,101786.66
2022-10-16T19:56:27.902Z,101777.03
2022-10-16T19:58:58.806Z,101781.03
2022-10-16T20:01:28.502Z,101780.75
2022-10-16T20:03:56.971Z,101781.59
2022-10-16T20:06:25.933Z,101787.72
2022-10-16T20:08:55.554Z,101780.75
2022-10-16T20:11:27.926Z,101795.25
2022-10-16T20:13:56.461Z,101792.56
2022-10-16T20:16:25.194Z,101792.56
2022-10-16T20:18:53.988Z,101796.03
2022-10-16T20:21:25.231Z,101798.19
2022-10-16T20:23:53.603Z,101792.53
2022-10-16T20:26:24.094Z,101790.16
2022-10-16T20:28:55.411Z,101791.75
2022-10-16T20:31:25.503Z,101793.09
2022-10-16T20:33:55.188Z,101794.69
2022-10-16T20:36:25.973Z,101789.34
2022-10-16T20:38:54.547Z,101789.34
2022-10-16T20:41:22.784Z,101791.22
2022-10-16T20:43:53.348Z,101780.78
2022-10-16T20:46:24.409Z,101785.06
2022-10-16T20:48:53.761Z,101781.28
2022-10-16T20:51:23.987Z,101777.03
2022-10-16T20:53:55.554Z,101779.16
2022-10-16T20:56:24.673Z,101778.09
2022-10-16T20:58:54.417Z,101773.53
2022-10-16T21:01:24.345Z,101779.16
2022-10-16T21:03:54.384Z,101779.16
2022-10-16T21:06:22.662Z,101773.00
2022-10-16T21:08:50.941Z,101776.75
2022-10-16T21:11:21.533Z,101779.16
2022-10-16T21:13:50.219Z,101780.22
2022-10-16T21:16:19.910Z,101782.63
2022-10-16T21:18:48.236Z,101784.78
2022-10-16T21:21:26.909Z,101777.56
2022-10-16T21:23:55.751Z,101774.88
2022-10-16T21:26:26.433Z,101770.56
2022-10-16T21:28:55.265Z,101769.50
2022-10-16T21:31:25.008Z,101763.63
2022-10-16T21:33:53.614Z,101763.09
2022-10-16T21:36:23.596Z,101771.66
2022-10-16T21:38:52.285Z,101762.03
2022-10-16T21:41:23.941Z,101758.25
2022-10-16T21:43:52.466Z,101756.63
2022-10-16T21:46:23.155Z,101774.31
2022-10-16T21:48:56.105Z,101779.41
2022-10-16T21:51:27.315Z,101775.91
2022-10-16T21:53:55.541Z,101784.22
2022-10-16T21:56:24.407Z,101778.59
2022-10-16T21:58:53.738Z,101774.84
2022-10-16T22:01:23.814Z,101779.91
2022-10-16T22:03:52.465Z,101783.38
2022-10-16T22:06:24.222Z,101783.69
2022-10-16T22:08:53.793Z,101786.09
2022-10-16T22:11:23.827Z,101782.88
2022-10-16T22:13:54.109Z,101795.16
2022-10-16T22:16:24.772Z,101794.63
2022-10-16T22:18:53.628Z,101798.38
2022-10-16T22:21:23.944Z,101798.34
2022-10-16T22:23:52.073Z,101795.91
2022-10-16T22:26:20.368Z,101803.16
2022-10-16T22:28:48.597Z,101808.22
2022-10-16T22:31:17.558Z,101808.75
2022-10-16T22:33:45.990Z,101801.19
2022-10-16T22:36:15.819Z,101808.41
2022-10-16T22:38:45.290Z,101810.03
2022-10-16T22:41:14.991Z,101800.31
2022-10-16T22:43:45.075Z,101806.19
2022-10-16T22:46:16.039Z,101803.56
2022-10-16T22:48:44.792Z,101809.41
2022-10-16T22:51:16.882Z,101801.88
2022-10-16T22:53:47.900Z,101799.44
2022-10-16T22:56:16.818Z,101808.00
2022-10-16T22:58:45.823Z,101804.78
2022-10-16T23:01:16.565Z,101807.72
2022-10-16T23:03:45.094Z,101804.47
2022-10-16T23:06:13.292Z,101814.66
2022-10-16T23:08:41.642Z,101820.81
2022-10-16T23:11:13.294Z,101824.59
2022-10-16T23:13:45.449Z,101821.38
2022-10-16T23:16:15.809Z,101824.38
2022-10-16T23:18:45.875Z,101825.16
2022-10-16T23:21:16.468Z,101829.72
2022-10-16T23:23:45.422Z,101819.53
2022-10-16T23:26:17.624Z,101825.91
2022-10-16T23:28:45.756Z,101811.41
2022-10-16T23:31:14.949Z,101812.47
2022-10-16T23:33:43.663Z,101826.69
2022-10-16T23:36:14.909Z,101820.03
2022-10-16T23:38:43.518Z,101821.66
2022-10-16T23:41:12.058Z,101806.09
2022-10-16T23:43:41.990Z,101806.38
2022-10-16T23:46:12.216Z,101813.91
2022-10-16T23:48:41.096Z,101822.25
2022-10-16T23:51:10.409Z,101823.88
2022-10-16T23:53:38.806Z,101815.31
2022-10-16T23:56:07.348Z,101827.34
2022-10-16T23:58:35.905Z,101836.75
